Time,TemperatureF,DewpointF,PressureIn,WindDirection,WindDirectionDegrees,WindSpeedMPH,WindSpeedGustMPH,Humidity,HourlyPrecipIn,Conditions,Clouds,dailyrainin,SoftwareType,DateUTC
2013-02-01 00:02:00,-8.0,-17.0,30.33,North,0,0.0,-999.0,63,-99.99,,,-99.99,,2013-02-01 06:02:00,
2013-02-01 00:11:00,-8.0,-17.0,30.33,West,260,5.0,-999.0,63,-99.99,,,-99.99,,2013-02-01 06:11:00,
2013-02-01 00:22:00,-8.0,-17.0,30.33,West,260,5.0,-999.0,63,-99.99,,,-99.99,,2013-02-01 06:22:00,
2013-02-01 00:32:00,-8.0,-17.0,30.34,North,0,0.0,-999.0,63,-99.99,,,-99.99,,2013-02-01 06:32:00,
2013-02-01 00:42:00,-8.0,-17.0,30.34,North,0,0.0,-999.0,63,-99.99,,,-99.99,,2013-02-01 06:42:00,
2013-02-01 00:52:00,-8.0,-17.0,30.33,North,0,0.0,-999.0,63,-99.99,,,-99.99,,2013-02-01 06:52:00,
2013-02-01 01:02:00,-8.0,-17.0,30.33,North,0,0.0,-999.0,63,-99.99,,,-99.99,,2013-02-01 07:02:00,
2013-02-01 01:12:00,-8.0,-17.0,30.33,North,0,0.0,-999.0,63,-99.99,,,-99.99,,2013-02-01 07:12:00,
2013-02-01 01:22:00,-6.0,-15.0,30.32,North,0,0.0,-999.0,64,-99.99,,,-99.99,,2013-02-01 07:22:00,
2013-02-01 01:32:00,-6.0,-15.0,30.32,North,0,0.0,-999.0,64,-99.99,,,-99.99,,2013-02-01 07:32:00,
2013-02-01 01:42:00,-6.0,-15.0,30.32,North,0,0.0,-999.0,64,-99.99,,,-99.99,,2013-02-01 07:42:00,
2013-02-01 01:51:00,-8.0,-15.0,30.31,North,-999,-999.0,-999.0,69,-99.99,,,-99.99,,2013-02-01 07:51:00,
2013-02-01 02:01:00,-8.0,-15.0,30.31,North,-999,-999.0,-999.0,69,-99.99,,,-99.99,,2013-02-01 08:01:00,
2013-02-01 02:11:00,-8.0,-15.0,30.32,SW,230,5.0,-999.0,69,-99.99,,,-99.99,,2013-02-01 08:11:00,
2013-02-01 02:21:00,-8.0,-15.0,30.32,SW,230,5.0,-999.0,69,-99.99,,,-99.99,,2013-02-01 08:21:00,
2013-02-01 02:32:00,-6.0,-15.0,30.31,North,0,0.0,-999.0,64,-99.99,,,-99.99,,2013-02-01 08:32:00,
2013-02-01 02:42:00,-6.0,-15.0,30.31,North,0,0.0,-999.0,64,-99.99,,,-99.99,,2013-02-01 08:42:00,
2013-02-01 02:52:00,-6.0,-15.0,30.31,North,0,0.0,-999.0,64,-99.99,,,-99.99,,2013-02-01 08:52:00,
2013-02-01 03:01:00,-6.0,-15.0,30.31,North,0,0.0,-999.0,64,-99.99,,,-99.99,,2013-02-01 09:01:00,
2013-02-01 03:11:00,-6.0,-15.0,30.31,North,0,0.0,-999.0,64,-99.99,,,-99.99,,2013-02-01 09:11:00,
2013-02-01 03:21:00,-6.0,-15.0,30.31,North,0,0.0,-999.0,64,-99.99,,,-99.99,,2013-02-01 09:21:00,
2013-02-01 03:32:00,-6.0,-15.0,30.30,SW,230,5.0,-999.0,64,-99.99,,,-99.99,,2013-02-01 09:32:00,
2013-02-01 03:42:00,-6.0,-15.0,30.30,SW,230,5.0,-999.0,64,-99.99,,,-99.99,,2013-02-01 09:42:00,
2013-02-01 03:52:00,-6.0,-15.0,30.30,North,0,0.0,-999.0,64,-99.99,,,-99.99,,2013-02-01 09:52:00,
2013-02-01 04:01:00,-6.0,-15.0,30.30,North,0,0.0,-999.0,64,-99.99,,,-99.99,,2013-02-01 10:01:00,
2013-02-01 04:11:00,-6.0,-15.0,30.29,North,0,0.0,-999.0,64,-99.99,,,-99.99,,2013-02-01 10:11:00,
2013-02-01 04:21:00,-6.0,-15.0,30.29,North,0,0.0,-999.0,64,-99.99,,,-99.99,,2013-02-01 10:21:00,
2013-02-01 04:31:00,-6.0,-13.0,30.28,North,0,0.0,-999.0,70,-99.99,,,-99.99,,2013-02-01 10:31:00,
2013-02-01 04:42:00,-6.0,-13.0,30.28,North,0,0.0,-999.0,70,-99.99,,,-99.99,,2013-02-01 10:42:00,
2013-02-01 04:52:00,-6.0,-13.0,30.28,North,0,0.0,-999.0,70,-99.99,,,-99.99,,2013-02-01 10:52:00,
2013-02-01 05:02:00,-6.0,-13.0,30.28,North,0,0.0,-999.0,70,-99.99,,,-99.99,,2013-02-01 11:02:00,
2013-02-01 05:11:00,-8.0,-15.0,30.27,North,0,0.0,-999.0,69,-99.99,,,-99.99,,2013-02-01 11:11:00,
2013-02-01 05:22:00,-8.0,-15.0,30.27,North,0,0.0,-999.0,69,-99.99,,,-99.99,,2013-02-01 11:22:00,
2013-02-01 05:32:00,-8.0,-15.0,30.25,North,0,0.0,-999.0,69,-99.99,,,-99.99,,2013-02-01 11:32:00,
2013-02-01 05:42:00,-8.0,-15.0,30.25,North,0,0.0,-999.0,69,-99.99,,,-99.99,,2013-02-01 11:42:00,
2013-02-01 05:53:00,-8.0,-15.0,30.25,North,0,0.0,-999.0,69,-99.99,,,-99.99,,2013-02-01 11:53:00,
2013-02-01 06:02:00,-8.0,-15.0,30.25,North,0,0.0,-999.0,69,-99.99,,,-99.99,,2013-02-01 12:02:00,
2013-02-01 06:12:00,-8.0,-15.0,30.25,North,0,0.0,-999.0,69,-99.99,,,-99.99,,2013-02-01 12:12:00,
2013-02-01 06:22:00,-8.0,-15.0,30.25,North,0,0.0,-999.0,69,-99.99,,,-99.99,,2013-02-01 12:22:00,
2013-02-01 06:32:00,-8.0,-15.0,30.24,North,0,0.0,-999.0,69,-99.99,,,-99.99,,2013-02-01 12:32:00,
2013-02-01 06:42:00,-8.0,-15.0,30.24,North,0,0.0,-999.0,69,-99.99,,,-99.99,,2013-02-01 12:42:00,
2013-02-01 06:52:00,-6.0,-13.0,30.24,North,0,0.0,-999.0,70,-99.99,,,-99.99,,2013-02-01 12:52:00,
2013-02-01 07:02:00,-6.0,-13.0,30.24,North,0,0.0,-999.0,70,-99.99,,,-99.99,,2013-02-01 13:02:00,
2013-02-01 07:11:00,-6.0,-13.0,30.24,North,0,0.0,-999.0,70,-99.99,,,-99.99,,2013-02-01 13:11:00,
2013-02-01 07:22:00,-6.0,-13.0,30.24,North,0,0.0,-999.0,70,-99.99,,,-99.99,,2013-02-01 13:22:00,
2013-02-01 07:32:00,-6.0,-11.0,30.23,South,170,6.0,-999.0,76,-99.99,,,-99.99,,2013-02-01 13:32:00,
2013-02-01 07:43:00,-6.0,-11.0,30.23,South,170,6.0,-999.0,76,-99.99,,,-99.99,,2013-02-01 13:43:00,
2013-02-01 07:53:00,-6.0,-11.0,30.23,South,180,5.0,-999.0,76,-99.99,,,-99.99,,2013-02-01 13:53:00,
2013-02-01 08:03:00,-6.0,-11.0,30.23,South,180,5.0,-999.0,76,-99.99,,,-99.99,,2013-02-01 14:03:00,
2013-02-01 08:11:00,-4.0,-11.0,30.22,SE,140,5.0,-999.0,70,-99.99,,,-99.99,,2013-02-01 14:11:00,
2013-02-01 08:21:00,-4.0,-11.0,30.22,SE,140,5.0,-999.0,70,-99.99,,,-99.99,,2013-02-01 14:21:00,
2013-02-01 08:32:00,-2.0,-9.0,30.21,SSE,150,6.0,-999.0,70,-99.99,,,-99.99,,2013-02-01 14:32:00,
2013-02-01 08:42:00,-2.0,-9.0,30.21,SSE,150,6.0,-999.0,70,-99.99,,,-99.99,,2013-02-01 14:42:00,
2013-02-01 08:52:00,0.0,-8.0,30.21,North,0,0.0,-999.0,70,-99.99,,,-99.99,,2013-02-01 14:52:00,
2013-02-01 09:02:00,0.0,-8.0,30.21,North,0,0.0,-999.0,70,-99.99,,,-99.99,,2013-02-01 15:02:00,
2013-02-01 09:12:00,0.0,-8.0,30.21,North,0,0.0,-999.0,70,-99.99,,,-99.99,,2013-02-01 15:12:00,
2013-02-01 09:22:00,0.0,-8.0,30.21,North,0,0.0,-999.0,70,-99.99,,,-99.99,,2013-02-01 15:22:00,
2013-02-01 09:33:00,1.0,-8.0,30.18,SSE,160,9.0,-999.0,65,-99.99,,,-99.99,,2013-02-01 15:33:00,
2013-02-01 09:42:00,1.0,-8.0,30.18,SSE,160,9.0,-999.0,65,-99.99,,,-99.99,,2013-02-01 15:42:00,
2013-02-01 09:52:00,1.0,-8.0,30.18,SSE,160,10.0,16.0,65,-99.99,,,-99.99,,2013-02-01 15:52:00,
2013-02-01 10:03:00,1.0,-8.0,30.18,SSE,160,10.0,16.0,65,-99.99,,,-99.99,,2013-02-01 16:03:00,
2013-02-01 10:11:00,3.0,-6.0,30.17,SSE,160,12.0,16.0,65,-99.99,,,-99.99,,2013-02-01 16:11:00,
2013-02-01 10:22:00,3.0,-6.0,30.17,SSE,160,12.0,16.0,65,-99.99,,,-99.99,,2013-02-01 16:22:00,
2013-02-01 10:33:00,3.0,-6.0,30.17,SSE,160,9.0,-999.0,65,-99.99,,,-99.99,,2013-02-01 16:33:00,
2013-02-01 10:43:00,3.0,-6.0,30.17,SSE,160,9.0,-999.0,65,-99.99,,,-99.99,,2013-02-01 16:43:00,
2013-02-01 10:52:00,5.0,-4.0,30.16,SSE,160,10.0,16.0,65,-99.99,,,-99.99,,2013-02-01 16:52:00,
2013-02-01 11:02:00,5.0,-4.0,30.16,SSE,160,10.0,16.0,65,-99.99,,,-99.99,,2013-02-01 17:02:00,
2013-02-01 11:11:00,5.0,-4.0,30.16,SSE,160,10.0,16.0,65,-99.99,,,-99.99,,2013-02-01 17:11:00,
2013-02-01 11:22:00,5.0,-4.0,30.16,SSE,160,10.0,16.0,65,-99.99,,,-99.99,,2013-02-01 17:22:00,
2013-02-01 11:32:00,7.0,-2.0,30.14,SSE,160,12.0,17.0,65,-99.99,,,-99.99,,2013-02-01 17:32:00,
2013-02-01 11:42:00,7.0,-2.0,30.14,SSE,160,12.0,17.0,65,-99.99,,,-99.99,,2013-02-01 17:42:00,
2013-02-01 11:53:00,9.0,-2.0,30.12,SSE,150,14.0,18.0,60,-99.99,,,-99.99,,2013-02-01 17:53:00,
2013-02-01 12:02:00,9.0,-2.0,30.12,SSE,150,14.0,18.0,60,-99.99,,,-99.99,,2013-02-01 18:02:00,
2013-02-01 12:12:00,9.0,-2.0,30.12,SSE,150,14.0,18.0,60,-99.99,,,-99.99,,2013-02-01 18:12:00,
2013-02-01 12:22:00,9.0,-2.0,30.12,SSE,150,14.0,18.0,60,-99.99,,,-99.99,,2013-02-01 18:22:00,
2013-02-01 12:32:00,9.0,0.0,30.10,SSE,160,12.0,17.0,66,-99.99,,,-99.99,,2013-02-01 18:32:00,
2013-02-01 12:42:00,9.0,0.0,30.10,SSE,160,12.0,17.0,66,-99.99,,,-99.99,,2013-02-01 18:42:00,
2013-02-01 12:53:00,10.0,1.0,30.08,South,170,14.0,18.0,66,-99.99,,,-99.99,,2013-02-01 18:53:00,
2013-02-01 13:02:00,10.0,1.0,30.08,South,170,14.0,18.0,66,-99.99,,,-99.99,,2013-02-01 19:02:00,
2013-02-01 13:11:00,12.0,1.0,30.07,South,170,13.0,20.0,61,-99.99,,,-99.99,,2013-02-01 19:11:00,
2013-02-01 13:21:00,12.0,1.0,30.07,South,170,13.0,20.0,61,-99.99,,,-99.99,,2013-02-01 19:21:00,
2013-02-01 13:32:00,12.0,3.0,30.06,South,170,13.0,17.0,66,-99.99,,,-99.99,,2013-02-01 19:32:00,
2013-02-01 13:42:00,12.0,3.0,30.06,South,170,13.0,17.0,66,-99.99,,,-99.99,,2013-02-01 19:42:00,
2013-02-01 13:51:00,14.0,3.0,30.05,South,170,10.0,20.0,61,-99.99,,,-99.99,,2013-02-01 19:51:00,
2013-02-01 14:02:00,14.0,3.0,30.05,South,170,10.0,20.0,61,-99.99,,,-99.99,,2013-02-01 20:02:00,
2013-02-01 14:11:00,14.0,3.0,30.05,South,170,10.0,20.0,61,-99.99,,,-99.99,,2013-02-01 20:11:00,
2013-02-01 14:21:00,14.0,3.0,30.05,South,170,10.0,20.0,61,-99.99,,,-99.99,,2013-02-01 20:21:00,
2013-02-01 14:31:00,16.0,3.0,30.02,SSE,160,10.0,15.0,56,-99.99,,,-99.99,,2013-02-01 20:31:00,
2013-02-01 14:42:00,16.0,3.0,30.02,SSE,160,10.0,15.0,56,-99.99,,,-99.99,,2013-02-01 20:42:00,
2013-02-01 14:52:00,16.0,3.0,30.02,SSE,160,10.0,17.0,56,-99.99,,,-99.99,,2013-02-01 20:52:00,
2013-02-01 15:02:00,16.0,3.0,30.02,SSE,160,10.0,17.0,56,-99.99,,,-99.99,,2013-02-01 21:02:00,
2013-02-01 15:11:00,16.0,3.0,30.02,SSE,160,10.0,17.0,56,-99.99,,,-99.99,,2013-02-01 21:11:00,
2013-02-01 15:21:00,16.0,3.0,30.02,SSE,160,10.0,17.0,56,-99.99,,,-99.99,,2013-02-01 21:21:00,
2013-02-01 15:32:00,18.0,7.0,30.00,South,170,12.0,21.0,62,-99.99,,,-99.99,,2013-02-01 21:32:00,
2013-02-01 15:42:00,18.0,7.0,30.00,South,170,12.0,21.0,62,-99.99,,,-99.99,,2013-02-01 21:42:00,
2013-02-01 15:52:00,19.0,9.0,30.00,South,170,9.0,-999.0,62,-99.99,,,-99.99,,2013-02-01 21:52:00,
2013-02-01 16:02:00,19.0,9.0,30.00,South,170,9.0,-999.0,62,-99.99,,,-99.99,,2013-02-01 22:02:00,
2013-02-01 16:11:00,19.0,9.0,30.00,South,170,9.0,-999.0,62,-99.99,,,-99.99,,2013-02-01 22:11:00,
2013-02-01 16:21:00,19.0,9.0,30.00,South,170,9.0,-999.0,62,-99.99,,,-99.99,,2013-02-01 22:21:00,
2013-02-01 16:32:00,19.0,10.0,29.98,South,170,9.0,-999.0,67,-99.99,,,-99.99,,2013-02-01 22:32:00,
2013-02-01 16:42:00,19.0,10.0,29.98,South,170,9.0,-999.0,67,-99.99,,,-99.99,,2013-02-01 22:42:00,
2013-02-01 16:52:00,19.0,10.0,29.97,South,170,8.0,-999.0,67,-99.99,,,-99.99,,2013-02-01 22:52:00,
2013-02-01 17:01:00,19.0,10.0,29.97,South,170,8.0,-999.0,67,-99.99,,,-99.99,,2013-02-01 23:01:00,
2013-02-01 17:11:00,21.0,10.0,29.96,South,170,7.0,-999.0,62,-99.99,,,-99.99,,2013-02-01 23:11:00,
2013-02-01 17:21:00,21.0,10.0,29.96,South,170,7.0,-999.0,62,-99.99,,,-99.99,,2013-02-01 23:21:00,
2013-02-01 17:31:00,21.0,12.0,29.96,North,0,0.0,-999.0,67,-99.99,,,-99.99,,2013-02-01 23:31:00,
2013-02-01 17:42:00,21.0,12.0,29.96,North,0,0.0,-999.0,67,-99.99,,,-99.99,,2013-02-01 23:42:00,
2013-02-01 17:52:00,21.0,12.0,29.96,North,0,0.0,-999.0,67,-99.99,,,-99.99,,2013-02-01 23:52:00,
2013-02-01 18:02:00,21.0,12.0,29.96,North,0,0.0,-999.0,67,-99.99,,,-99.99,,2013-02-02 00:02:00,
2013-02-01 18:11:00,21.0,12.0,29.96,North,0,0.0,-999.0,67,-99.99,,,-99.99,,2013-02-02 00:11:00,
2013-02-01 18:21:00,21.0,12.0,29.96,North,0,0.0,-999.0,67,-99.99,,,-99.99,,2013-02-02 00:21:00,
2013-02-01 18:32:00,19.0,12.0,29.96,North,0,0.0,-999.0,73,-99.99,,,-99.99,,2013-02-02 00:32:00,
2013-02-01 18:42:00,19.0,12.0,29.96,North,0,0.0,-999.0,73,-99.99,,,-99.99,,2013-02-02 00:42:00,
2013-02-01 18:52:00,19.0,12.0,29.96,North,0,0.0,-999.0,73,-99.99,,,-99.99,,2013-02-02 00:52:00,
2013-02-01 19:02:00,19.0,12.0,29.96,North,0,0.0,-999.0,73,-99.99,,,-99.99,,2013-02-02 01:02:00,
2013-02-01 19:11:00,18.0,12.0,29.97,North,0,0.0,-999.0,78,-99.99,,,-99.99,,2013-02-02 01:11:00,
2013-02-01 19:21:00,18.0,12.0,29.97,North,0,0.0,-999.0,78,-99.99,,,-99.99,,2013-02-02 01:21:00,
2013-02-01 19:32:00,18.0,10.0,29.97,North,0,0.0,-999.0,72,-99.99,,,-99.99,,2013-02-02 01:32:00,
2013-02-01 19:42:00,18.0,10.0,29.97,North,0,0.0,-999.0,72,-99.99,,,-99.99,,2013-02-02 01:42:00,
2013-02-01 19:52:00,16.0,10.0,29.97,North,0,0.0,-999.0,78,-99.99,,,-99.99,,2013-02-02 01:52:00,
2013-02-01 20:01:00,16.0,10.0,29.97,North,0,0.0,-999.0,78,-99.99,,,-99.99,,2013-02-02 02:01:00,
2013-02-01 20:11:00,16.0,10.0,29.97,North,0,0.0,-999.0,78,-99.99,,,-99.99,,2013-02-02 02:11:00,
2013-02-01 20:21:00,16.0,10.0,29.97,North,0,0.0,-999.0,78,-99.99,,,-99.99,,2013-02-02 02:21:00,
2013-02-01 20:32:00,16.0,10.0,29.98,North,0,0.0,-999.0,78,-99.99,,,-99.99,,2013-02-02 02:32:00,
2013-02-01 20:42:00,16.0,10.0,29.98,North,0,0.0,-999.0,78,-99.99,,,-99.99,,2013-02-02 02:42:00,
2013-02-01 20:52:00,18.0,12.0,29.99,North,0,0.0,-999.0,78,-99.99,,,-99.99,,2013-02-02 02:52:00,
2013-02-01 21:02:00,18.0,12.0,29.99,North,0,0.0,-999.0,78,-99.99,,,-99.99,,2013-02-02 03:02:00,
2013-02-01 21:11:00,18.0,12.0,29.99,North,0,0.0,-999.0,78,-99.99,,,-99.99,,2013-02-02 03:11:00,
2013-02-01 21:22:00,18.0,12.0,29.99,North,0,0.0,-999.0,78,-99.99,,,-99.99,,2013-02-02 03:22:00,
2013-02-01 21:32:00,21.0,16.0,30.00,NW,310,7.0,-999.0,79,-99.99,,,-99.99,,2013-02-02 03:32:00,
2013-02-01 21:42:00,21.0,16.0,30.00,NW,310,7.0,-999.0,79,-99.99,,,-99.99,,2013-02-02 03:42:00,
2013-02-01 21:52:00,21.0,16.0,30.00,North,0,0.0,-999.0,79,-99.99,,,-99.99,,2013-02-02 03:52:00,
2013-02-01 22:01:00,21.0,16.0,30.00,North,0,0.0,-999.0,79,-99.99,,,-99.99,,2013-02-02 04:01:00,
2013-02-01 22:11:00,21.0,16.0,30.01,North,0,0.0,-999.0,79,-99.99,,,-99.99,,2013-02-02 04:11:00,
2013-02-01 22:21:00,21.0,16.0,30.01,North,0,0.0,-999.0,79,-99.99,,,-99.99,,2013-02-02 04:21:00,
2013-02-01 22:32:00,18.0,12.0,30.01,WNW,300,5.0,-999.0,78,-99.99,,,-99.99,,2013-02-02 04:32:00,
2013-02-01 22:42:00,18.0,12.0,30.01,WNW,300,5.0,-999.0,78,-99.99,,,-99.99,,2013-02-02 04:42:00,
2013-02-01 22:51:00,18.0,12.0,30.03,WNW,300,7.0,-999.0,78,-99.99,,,-99.99,,2013-02-02 04:51:00,
2013-02-01 23:03:00,18.0,12.0,30.03,WNW,300,7.0,-999.0,78,-99.99,,,-99.99,,2013-02-02 05:03:00,
2013-02-01 23:12:00,18.0,12.0,30.03,WNW,300,7.0,-999.0,78,-99.99,,,-99.99,,2013-02-02 05:12:00,
2013-02-01 23:22:00,18.0,12.0,30.03,WNW,300,7.0,-999.0,78,-99.99,,,-99.99,,2013-02-02 05:22:00,
2013-02-01 23:33:00,18.0,12.0,30.05,WNW,300,9.0,-999.0,78,-99.99,,,-99.99,,2013-02-02 05:33:00,
2013-02-01 23:42:00,18.0,12.0,30.05,WNW,300,9.0,-999.0,78,-99.99,,,-99.99,,2013-02-02 05:42:00,
2013-02-01 23:52:00,18.0,12.0,30.05,WNW,300,9.0,-999.0,78,-99.99,,,-99.99,,2013-02-02 05:52:00,